Stamford, NY

2:25 PM EST on March 04, 2015 (GMT -0500)
HWY 58/WEBB,RD | Change Station
CLOSE
Current Station
Personal Weather Station
Location: CHATTANOOGA, TN
Elevation: 719 ft
Nearby Weather Stations

Elev 719 ft 35.10 °N, 85.18 °W | Updated 13 minutes ago

Overcast
Overcast
70.2 °F
Feels Like 70 °F
N
4.2
Wind Variable Wind from South

Today
High -- | Low -- °F
--% Chance of Precip.
Yesterday
High -- | Low -- °F
Precip. -- in
7:06 AM 6:38 PM
Waxing Gibbous, 99% visible
Pressure 29.88 in
Visibility 10.0 miles
Clouds Mostly Cloudy 3000 ft
Mostly Cloudy 3500 ft
Overcast 4500 ft
Heat Index 70 °F
Dew Point 64 °F
Humidity 82%
Rainfall 0.13 in
Snow Depth Not available.
UV 2 out of 12
Pollen .70 out of 12
Air Quality Not available.
Flu Activity Not available.
METAR KCHA 041853Z 20016G22KT 10SM BKN030 BKN035 OVC045 22/16 A2989 RMK AO2 SLP116 T02170156

More Conditions Fewer Conditions

Pressure 29.88 in
Visibility 10.0 miles
Clouds Mostly Cloudy 3000 ft
Mostly Cloudy 3500 ft
Overcast 4500 ft
Heat Index 70 °F
Dew Point 64 °F
Humidity 82%
Rainfall 0.13 in
Snow Depth Not available.
UV 2 out of 12
Pollen .70 out of 12
Air Quality Not available.
Flu Activity Not available.
METAR KCHA 041853Z 20016G22KT 10SM BKN030 BKN035 OVC045 22/16 A2989 RMK AO2 SLP116 T02170156

More Conditions Fewer Conditions

10-Day Weather Forecast

Almanac

Astronomy

Mar. 04, 2015 Rise Set
Actual Time
Civil Twilight
Nautical Twilight
Astronomical Twilight
Moon
Length of Visible Light
Length of Day
Tomorrow will be .
, % of the Moon is Illuminated

Today's Extremes

State Highs State Lows

Community

WunderPhotos

Upload Photos

1,802,552 photos uploaded!

WunderBlogs® & News

Nearby

Air Quality

  Air Quality AQ Index Pollutant
Not available.

Snow Depth

Station Depth Elevation

Earthquake Activity

City Distance Mag. Time & Date
Minimum magnitude displayed is 2.5.

Coastal Water Temperatures

Place Temperature

Nearby Weather Stations